createdAt,value
2022-11-10T00:01:34.318Z,10.38
2022-11-10T00:03:32.776Z,10.38
2022-11-10T00:05:32.852Z,10.38
2022-11-10T00:07:32.510Z,10.38
2022-11-10T00:09:33.577Z,10.38
2022-11-10T00:11:32.500Z,10.38
2022-11-10T00:13:32.068Z,10.38
2022-11-10T00:15:31.918Z,10.38
2022-11-10T00:17:31.917Z,10.38
2022-11-10T00:19:32.031Z,10.38
2022-11-10T00:21:32.312Z,10.38
2022-11-10T00:23:34.422Z,10.38
2022-11-10T00:25:31.752Z,10.38
2022-11-10T00:27:32.131Z,10.38
2022-11-10T00:29:31.282Z,10.38
2022-11-10T00:31:32.180Z,10.38
2022-11-10T00:33:32.379Z,10.38
2022-11-10T00:35:31.321Z,10.38
2022-11-10T00:37:31.726Z,10.38
2022-11-10T00:39:31.599Z,10.38
2022-11-10T00:41:31.697Z,10.38
2022-11-10T00:43:37.911Z,10.38
2022-11-10T00:45:31.885Z,10.38
2022-11-10T00:47:31.783Z,10.38
2022-11-10T00:49:31.494Z,10.38
2022-11-10T00:51:31.846Z,10.38
2022-11-10T00:53:32.786Z,10.38
2022-11-10T00:55:32.173Z,10.38
2022-11-10T00:57:31.853Z,10.38
2022-11-10T00:59:32.147Z,10.38
2022-11-10T01:01:34.925Z,10.38
2022-11-10T01:03:32.255Z,10.38
2022-11-10T01:05:32.000Z,10.38
2022-11-10T01:07:32.073Z,10.38
2022-11-10T01:09:32.224Z,10.38
2022-11-10T01:11:31.723Z,10.38
2022-11-10T01:13:32.626Z,10.38
2022-11-10T01:15:39.020Z,10.38
2022-11-10T01:17:31.553Z,10.38
2022-11-10T01:19:31.477Z,10.38
2022-11-10T01:21:32.039Z,10.38
2022-11-10T01:23:32.059Z,10.38
2022-11-10T01:25:31.963Z,10.38
2022-11-10T01:27:31.754Z,10.38
2022-11-10T01:29:31.477Z,10.38
2022-11-10T01:31:32.213Z,10.38
2022-11-10T01:33:32.647Z,10.38
2022-11-10T01:35:31.965Z,10.38
2022-11-10T01:37:31.453Z,10.38
2022-11-10T01:39:32.064Z,10.38
2022-11-10T01:41:32.388Z,10.38
2022-11-10T01:43:32.331Z,10.38
2022-11-10T01:45:31.994Z,10.38
2022-11-10T01:47:31.693Z,10.38
2022-11-10T01:49:31.623Z,10.38
2022-11-10T01:51:32.229Z,10.38
2022-11-10T01:53:32.166Z,10.38
2022-11-10T01:55:32.298Z,10.38
2022-11-10T01:57:31.654Z,10.38
2022-11-10T01:59:32.176Z,10.38
2022-11-10T02:01:35.237Z,10.38
2022-11-10T02:03:32.220Z,10.38
2022-11-10T02:05:31.959Z,10.38
2022-11-10T02:07:32.758Z,10.38
2022-11-10T02:09:31.621Z,10.38
2022-11-10T02:11:31.354Z,10.38
2022-11-10T02:13:32.085Z,10.38
2022-11-10T02:15:32.025Z,10.38
2022-11-10T02:17:32.147Z,10.38
2022-11-10T02:19:32.086Z,10.38
2022-11-10T02:21:31.702Z,10.38
2022-11-10T02:23:32.090Z,10.38
2022-11-10T02:25:31.878Z,10.38
2022-11-10T02:27:32.066Z,10.38
2022-11-10T02:29:31.838Z,10.38
2022-11-10T02:31:35.561Z,10.38
2022-11-10T02:33:32.307Z,10.38
2022-11-10T02:35:32.018Z,10.38
2022-11-10T02:37:32.088Z,10.38
2022-11-10T02:39:32.091Z,10.38
2022-11-10T02:41:31.499Z,10.38
2022-11-10T02:43:32.315Z,10.38
2022-11-10T02:45:31.780Z,10.38
2022-11-10T02:47:31.718Z,10.38
2022-11-10T02:49:32.004Z,10.38
2022-11-10T02:51:31.850Z,10.38
2022-11-10T02:53:32.067Z,10.38
2022-11-10T02:55:32.028Z,10.38
2022-11-10T02:57:31.571Z,10.38
2022-11-10T02:59:31.998Z,10.38
2022-11-10T03:01:34.797Z,10.38
2022-11-10T03:03:37.281Z,10.38
2022-11-10T03:05:32.055Z,10.38
2022-11-10T03:07:31.853Z,10.38
2022-11-10T03:09:32.007Z,10.38
2022-11-10T03:11:32.492Z,10.38
2022-11-10T03:13:51.663Z,10.38
2022-11-10T03:15:32.984Z,10.38
2022-11-10T03:17:31.857Z,10.38
2022-11-10T03:19:31.386Z,10.38
2022-11-10T03:21:31.864Z,10.38
2022-11-10T03:23:32.031Z,10.38
2022-11-10T03:25:31.864Z,10.38
2022-11-10T03:27:32.295Z,10.38
2022-11-10T03:29:31.450Z,10.38
2022-11-10T03:31:31.765Z,10.38
2022-11-10T03:33:32.696Z,10.38
2022-11-10T03:35:36.873Z,10.38
2022-11-10T03:37:31.904Z,10.38
2022-11-10T03:39:32.254Z,10.38
2022-11-10T03:42:05.757Z,10.38
2022-11-10T03:43:32.347Z,10.38
2022-11-10T03:45:31.384Z,10.38
2022-11-10T03:47:36.625Z,10.38
2022-11-10T03:49:38.398Z,10.38
2022-11-10T03:51:32.065Z,10.38
2022-11-10T03:53:32.809Z,10.38
2022-11-10T03:55:37.260Z,10.38
2022-11-10T03:57:31.640Z,10.38
2022-11-10T03:59:31.300Z,10.38
2022-11-10T04:01:35.748Z,10.38
2022-11-10T04:03:32.939Z,10.38
2022-11-10T04:05:31.855Z,10.38
2022-11-10T04:07:32.224Z,10.38
2022-11-10T04:09:32.105Z,10.38
2022-11-10T04:11:31.521Z,10.38
2022-11-10T04:13:33.352Z,10.38
2022-11-10T04:15:32.223Z,10.38
2022-11-10T04:17:31.318Z,10.38
2022-11-10T04:19:32.321Z,10.38
2022-11-10T04:21:31.406Z,10.38
2022-11-10T04:23:32.994Z,10.38
2022-11-10T04:25:31.775Z,10.38
2022-11-10T04:27:31.886Z,10.38
2022-11-10T04:29:31.576Z,10.38
2022-11-10T04:31:31.682Z,10.38
2022-11-10T04:33:32.530Z,10.38
2022-11-10T04:35:31.459Z,10.38
2022-11-10T04:37:32.199Z,10.38
2022-11-10T04:39:31.781Z,10.38
2022-11-10T04:41:31.674Z,10.38
2022-11-10T04:43:33.680Z,10.38
2022-11-10T04:45:31.525Z,10.38
2022-11-10T04:47:34.673Z,10.38
2022-11-10T04:49:31.515Z,10.38
2022-11-10T04:51:32.369Z,10.38
2022-11-10T04:53:32.939Z,10.38
2022-11-10T04:55:31.922Z,10.38
2022-11-10T04:57:32.131Z,10.38
2022-11-10T04:59:31.697Z,10.38
2022-11-10T05:01:35.774Z,10.38
2022-11-10T05:03:36.577Z,10.38
2022-11-10T05:05:32.210Z,10.38
2022-11-10T05:07:32.108Z,10.38
2022-11-10T05:09:31.957Z,10.38
2022-11-10T05:11:31.821Z,10.38
2022-11-10T05:13:31.833Z,10.38
2022-11-10T05:15:32.077Z,10.38
2022-11-10T05:17:31.620Z,10.38
2022-11-10T05:19:31.667Z,10.38
2022-11-10T05:21:32.075Z,10.38
2022-11-10T05:23:34.873Z,10.38
2022-11-10T05:25:32.105Z,10.38
2022-11-10T05:27:31.403Z,10.38
2022-11-10T05:29:31.756Z,10.38
2022-11-10T05:31:31.945Z,10.38
2022-11-10T05:33:32.738Z,10.38
2022-11-10T05:35:31.566Z,10.38
2022-11-10T05:37:31.553Z,10.38
2022-11-10T05:39:38.352Z,10.38
2022-11-10T05:41:32.367Z,10.38
2022-11-10T05:43:32.225Z,10.38
2022-11-10T05:45:31.605Z,10.38
2022-11-10T05:47:32.088Z,10.38
2022-11-10T05:49:32.299Z,10.38
2022-11-10T05:51:31.957Z,10.38
2022-11-10T05:53:36.215Z,10.38
2022-11-10T05:55:31.481Z,10.38
2022-11-10T05:57:31.880Z,10.38
2022-11-10T05:59:32.397Z,10.38
2022-11-10T06:01:34.757Z,10.38
2022-11-10T06:03:33.305Z,10.38
2022-11-10T06:05:32.508Z,10.38
2022-11-10T06:07:32.415Z,10.38
2022-11-10T06:09:32.020Z,10.38
2022-11-10T06:11:32.115Z,10.38
2022-11-10T06:13:32.963Z,10.38
2022-11-10T06:15:32.032Z,10.38
2022-11-10T06:17:31.828Z,10.38
2022-11-10T06:19:32.560Z,10.38
2022-11-10T06:21:32.065Z,10.38
2022-11-10T06:23:37.994Z,10.38
2022-11-10T06:25:32.645Z,10.38
2022-11-10T06:27:31.861Z,10.38
2022-11-10T06:29:38.153Z,10.38
2022-11-10T06:31:31.231Z,10.38
2022-11-10T06:33:32.071Z,10.38
2022-11-10T06:35:34.718Z,10.38
2022-11-10T06:37:31.449Z,10.38
2022-11-10T06:39:32.037Z,10.38
2022-11-10T06:41:36.743Z,10.38
2022-11-10T06:43:32.922Z,10.38
2022-11-10T06:45:31.454Z,10.38
2022-11-10T06:47:38.544Z,10.38
2022-11-10T06:49:32.318Z,10.38
2022-11-10T06:51:32.149Z,10.38
2022-11-10T06:53:38.059Z,10.38
2022-11-10T06:55:31.680Z,10.38
2022-11-10T06:57:32.050Z,10.38
2022-11-10T06:59:31.965Z,10.38
2022-11-10T07:01:34.999Z,10.38
2022-11-10T07:03:32.148Z,10.38
2022-11-10T07:05:49.450Z,10.38
2022-11-10T07:07:32.515Z,10.38
2022-11-10T07:09:31.561Z,10.38
2022-11-10T07:11:37.221Z,10.38
2022-11-10T07:13:32.839Z,10.38
2022-11-10T07:15:31.736Z,10.38
2022-11-10T07:17:32.343Z,10.38
2022-11-10T07:19:31.949Z,10.38
2022-11-10T07:21:32.064Z,10.38
2022-11-10T07:23:39.879Z,10.38
2022-11-10T07:25:32.246Z,10.38
2022-11-10T07:27:31.784Z,10.38
2022-11-10T07:29:36.005Z,10.38
2022-11-10T07:31:32.607Z,10.38
2022-11-10T07:33:33.019Z,10.38
2022-11-10T07:35:31.916Z,10.38
2022-11-10T07:37:31.787Z,10.38
2022-11-10T07:39:31.989Z,10.38
2022-11-10T07:41:32.261Z,10.38
2022-11-10T07:43:32.477Z,10.38
2022-11-10T07:45:31.952Z,10.38
2022-11-10T07:47:31.550Z,10.38
2022-11-10T07:49:31.727Z,10.38
2022-11-10T07:51:31.514Z,10.38
2022-11-10T07:53:32.395Z,10.38
2022-11-10T07:55:31.947Z,10.38
2022-11-10T07:57:31.565Z,10.38
2022-11-10T07:59:31.875Z,10.38
2022-11-10T08:01:35.403Z,10.38
2022-11-10T08:03:33.213Z,10.38
2022-11-10T08:05:32.312Z,10.38
2022-11-10T08:07:33.844Z,10.38
2022-11-10T08:09:32.607Z,10.38
2022-11-10T08:11:31.652Z,10.38
2022-11-10T08:13:33.016Z,10.38
2022-11-10T08:15:31.844Z,10.38
2022-11-10T08:17:32.212Z,10.38
2022-11-10T08:19:32.136Z,10.38
2022-11-10T08:21:32.059Z,10.38
2022-11-10T08:23:32.273Z,10.38
2022-11-10T08:25:34.762Z,10.38
2022-11-10T08:27:32.273Z,10.38
2022-11-10T08:29:31.595Z,10.38
2022-11-10T08:31:39.007Z,10.38
2022-11-10T08:33:32.895Z,10.38
2022-11-10T08:35:31.355Z,10.38
2022-11-10T08:37:31.603Z,10.38
2022-11-10T08:40:00.539Z,10.38
2022-11-10T08:41:31.899Z,10.38
2022-11-10T08:43:32.930Z,10.38
2022-11-10T08:45:35.595Z,10.38
2022-11-10T08:47:32.001Z,10.38
2022-11-10T08:49:31.938Z,10.38
2022-11-10T08:51:36.333Z,10.38
2022-11-10T08:53:32.905Z,10.38
2022-11-10T08:55:32.004Z,10.38
2022-11-10T08:57:31.725Z,10.38
2022-11-10T08:59:44.991Z,10.38
2022-11-10T09:01:34.813Z,10.38
2022-11-10T09:03:32.343Z,10.38
2022-11-10T09:05:32.107Z,10.38
2022-11-10T09:07:32.069Z,10.38
2022-11-10T09:09:31.319Z,10.38
2022-11-10T09:11:37.560Z,10.38
2022-11-10T09:13:40.557Z,10.38
2022-11-10T09:15:31.857Z,10.38
2022-11-10T09:17:32.208Z,10.38
2022-11-10T09:19:31.850Z,10.38
2022-11-10T09:21:32.074Z,10.38
2022-11-10T09:23:31.961Z,10.38
2022-11-10T09:25:38.796Z,10.38
2022-11-10T09:27:31.540Z,10.38
2022-11-10T09:29:31.633Z,10.38
2022-11-10T09:31:36.806Z,10.38
2022-11-10T09:33:32.486Z,10.38
2022-11-10T09:35:38.171Z,10.38
2022-11-10T09:37:31.859Z,10.38
2022-11-10T09:39:32.434Z,10.38
2022-11-10T09:41:32.224Z,10.38
2022-11-10T09:43:32.240Z,10.38
2022-11-10T09:45:37.792Z,10.38
2022-11-10T09:48:07.887Z,10.38
2022-11-10T09:49:32.179Z,217.43
2022-11-10T09:51:32.283Z,217.43
2022-11-10T09:53:32.103Z,217.43
2022-11-10T09:55:32.207Z,14957.6
2022-11-10T09:57:31.860Z,14957.6
2022-11-10T09:59:32.011Z,14957.6
2022-11-10T10:01:34.349Z,4.62
2022-11-10T10:03:31.548Z,4.62
2022-11-10T10:05:37.168Z,4.62
2022-11-10T10:08:07.084Z,2.62
2022-11-10T10:09:32.345Z,2.62
2022-11-10T10:11:36.362Z,2.62
2022-11-10T10:13:31.841Z,1965.76
2022-11-10T10:15:36.890Z,1965.76
2022-11-10T10:17:41.158Z,1965.76
2022-11-10T10:19:32.122Z,1550
2022-11-10T10:21:32.091Z,1550
2022-11-10T10:24:07.634Z,1550
2022-11-10T10:25:46.517Z,1.25
2022-11-10T10:27:31.521Z,1.25
2022-11-10T10:29:37.043Z,1.25
2022-11-10T10:31:31.755Z,1.07
2022-11-10T10:33:31.926Z,1.07
2022-11-10T10:35:31.260Z,1.07
2022-11-10T10:37:31.755Z,0.98
2022-11-10T10:39:32.616Z,0.98
2022-11-10T10:41:35.378Z,0.98
2022-11-10T10:43:31.747Z,0.9
2022-11-10T10:45:32.228Z,0.9
2022-11-10T10:47:32.439Z,0.9
2022-11-10T10:50:02.677Z,894.16
2022-11-10T10:51:31.398Z,894.16
2022-11-10T10:53:32.060Z,894.16
2022-11-10T10:55:32.048Z,0.8
2022-11-10T10:57:32.021Z,0.8
2022-11-10T10:59:33.266Z,0.8
2022-11-10T11:01:34.465Z,837.12
2022-11-10T11:03:38.319Z,837.12
2022-11-10T11:05:32.207Z,837.12
2022-11-10T11:07:32.398Z,0.78
2022-11-10T11:09:33.907Z,0.78
2022-11-10T11:11:31.769Z,0.78
2022-11-10T11:13:31.803Z,0.78
2022-11-10T11:15:31.597Z,0.78
2022-11-10T11:17:32.093Z,0.78
2022-11-10T11:19:32.079Z,796.16
2022-11-10T11:21:31.740Z,796.16
2022-11-10T11:23:31.456Z,796.16
2022-11-10T11:25:32.042Z,718.74
2022-11-10T11:27:31.406Z,718.74
2022-11-10T11:29:32.497Z,718.74
2022-11-10T11:31:32.155Z,0.67
2022-11-10T11:33:31.808Z,0.67
2022-11-10T11:35:31.953Z,0.67
2022-11-10T11:37:37.871Z,694.21
2022-11-10T11:39:32.422Z,694.21
2022-11-10T11:41:31.356Z,694.21
2022-11-10T11:43:31.549Z,694.21
2022-11-10T11:45:31.852Z,694.21
2022-11-10T11:47:34.368Z,694.21
2022-11-10T11:49:32.518Z,694.21
2022-11-10T11:51:31.517Z,694.21
2022-11-10T11:53:31.732Z,694.21
2022-11-10T11:55:32.244Z,694.21
2022-11-10T11:57:35.817Z,694.21
2022-11-10T11:59:32.118Z,694.21
2022-11-10T12:01:34.591Z,694.21
2022-11-10T12:03:38.242Z,694.21
2022-11-10T12:05:32.203Z,694.21
2022-11-10T12:07:32.142Z,694.21
2022-11-10T12:09:34.669Z,694.21
2022-11-10T12:11:39.467Z,694.21
2022-11-10T12:13:31.949Z,694.21
2022-11-10T12:15:32.235Z,694.21
2022-11-10T12:17:32.011Z,694.21
2022-11-10T12:19:35.232Z,694.21
2022-11-10T12:21:32.078Z,694.21
2022-11-10T12:23:31.888Z,694.21
2022-11-10T12:25:39.253Z,694.21
2022-11-10T12:27:32.208Z,694.21
2022-11-10T12:29:32.964Z,694.21
2022-11-10T12:31:35.920Z,694.21
2022-11-10T12:33:31.859Z,694.21
2022-11-10T12:35:31.963Z,694.21
2022-11-10T12:37:39.037Z,694.21
2022-11-10T12:39:34.078Z,694.21
2022-11-10T12:41:38.005Z,694.21
2022-11-10T12:43:32.239Z,15737.1
2022-11-10T12:45:31.846Z,15.03
2022-11-10T12:47:36.945Z,15.03
2022-11-10T12:49:32.440Z,3.79
2022-11-10T12:51:31.896Z,3.31
2022-11-10T12:53:32.101Z,3.31
2022-11-10T12:55:35.847Z,1.73
2022-11-10T12:57:32.212Z,1.64
2022-11-10T12:59:32.264Z,1.64
2022-11-10T13:01:41.889Z,1262
2022-11-10T13:03:31.800Z,1.16
2022-11-10T13:05:31.366Z,1.16
2022-11-10T13:07:36.412Z,0.96
2022-11-10T13:09:32.531Z,0.95
2022-11-10T13:11:31.665Z,0.95
2022-11-10T13:13:31.944Z,851.12
2022-11-10T13:15:31.754Z,0.79
2022-11-10T13:17:31.791Z,0.79
2022-11-10T13:19:32.349Z,0.74
2022-11-10T13:22:00.731Z,0.74
2022-11-10T13:23:33.038Z,0.74
2022-11-10T13:25:32.771Z,0.69
2022-11-10T13:27:31.828Z,0.69
2022-11-10T13:29:32.058Z,0.69
2022-11-10T13:31:31.768Z,0.67
2022-11-10T13:33:31.363Z,0.66
2022-11-10T13:35:31.930Z,0.66
2022-11-10T13:37:32.287Z,0.66
2022-11-10T13:39:32.522Z,0.66
2022-11-10T13:41:31.579Z,0.66
2022-11-10T13:43:32.361Z,0.66
2022-11-10T13:45:32.039Z,0.66
2022-11-10T13:47:32.110Z,0.66
2022-11-10T13:49:38.091Z,0.66
2022-11-10T13:51:31.948Z,0.66
2022-11-10T13:53:31.641Z,0.66
2022-11-10T13:55:38.607Z,0.66
2022-11-10T13:57:32.096Z,0.66
2022-11-10T13:59:33.142Z,0.66
2022-11-10T14:01:34.544Z,0.66
2022-11-10T14:03:32.288Z,0.66
2022-11-10T14:05:32.536Z,0.66
2022-11-10T14:07:32.117Z,0.66
2022-11-10T14:09:32.938Z,0.66
2022-11-10T14:11:32.209Z,0.66
2022-11-10T14:13:32.230Z,0.66
2022-11-10T14:15:31.284Z,0.66
2022-11-10T14:17:31.758Z,0.66
2022-11-10T14:19:32.529Z,0.66
2022-11-10T14:21:31.493Z,0.66
2022-11-10T14:23:31.371Z,0.66
2022-11-10T14:25:31.575Z,0.66
2022-11-10T14:27:31.256Z,0.66
2022-11-10T14:29:32.241Z,0.66
2022-11-10T14:31:31.652Z,0.66
2022-11-10T14:33:31.887Z,0.66
2022-11-10T14:35:31.607Z,0.66
2022-11-10T14:37:32.274Z,0.66
2022-11-10T14:39:38.133Z,12437.5
2022-11-10T14:41:31.967Z,12437.5
2022-11-10T14:43:31.272Z,12437.5
2022-11-10T14:45:32.137Z,12437.5
2022-11-10T14:47:34.766Z,12437.5
2022-11-10T14:49:33.137Z,12437.5
2022-11-10T14:51:31.640Z,12437.5
2022-11-10T14:53:31.964Z,12437.5
2022-11-10T14:55:31.292Z,12437.5
2022-11-10T14:57:32.111Z,12437.5
2022-11-10T14:59:32.335Z,12437.5
2022-11-10T15:01:35.908Z,12437.5
2022-11-10T15:03:31.916Z,12437.5
2022-11-10T15:05:31.745Z,12437.5
2022-11-10T15:07:32.799Z,12437.5
2022-11-10T15:09:32.375Z,12437.5
2022-11-10T15:11:31.978Z,12437.5
2022-11-10T15:13:38.276Z,12437.5
2022-11-10T15:15:32.281Z,12437.5
2022-11-10T15:17:31.719Z,12437.5
2022-11-10T15:19:32.520Z,12437.5
2022-11-10T15:21:32.277Z,12437.5
2022-11-10T15:23:33.679Z,12437.5
2022-11-10T15:25:31.943Z,12437.5
2022-11-10T15:27:31.574Z,12437.5
2022-11-10T15:29:32.739Z,12437.5
2022-11-10T15:31:32.163Z,12437.5
2022-11-10T15:33:36.384Z,12437.5
2022-11-10T15:35:31.885Z,12437.5
2022-11-10T15:37:32.085Z,12437.5
2022-11-10T15:39:39.808Z,12437.5
2022-11-10T15:41:38.230Z,12437.5
2022-11-10T15:43:32.470Z,12437.5
2022-11-10T15:45:31.340Z,18680.9
2022-11-10T15:47:37.368Z,18680.9
2022-11-10T15:49:32.798Z,18680.9
2022-11-10T15:51:37.649Z,18680.9
2022-11-10T15:53:32.496Z,18680.9
2022-11-10T15:55:31.977Z,18680.9
2022-11-10T15:57:31.703Z,18680.9
2022-11-10T15:59:36.207Z,18680.9
2022-11-10T16:01:33.717Z,18680.9
2022-11-10T16:03:31.941Z,18680.9
2022-11-10T16:05:33.892Z,18680.9
2022-11-10T16:07:32.347Z,18680.9
2022-11-10T16:09:32.289Z,18680.9
2022-11-10T16:11:32.407Z,18680.9
2022-11-10T16:13:32.906Z,18680.9
2022-11-10T16:15:32.328Z,18680.9
2022-11-10T16:17:31.904Z,18680.9
2022-11-10T16:19:37.510Z,18680.9
2022-11-10T16:21:32.288Z,18680.9
2022-11-10T16:23:31.637Z,18680.9
2022-11-10T16:25:39.305Z,18680.9
2022-11-10T16:27:31.700Z,18680.9
2022-11-10T16:29:32.395Z,18680.9
2022-11-10T16:31:31.755Z,18680.9
2022-11-10T16:33:31.881Z,18680.9
2022-11-10T16:35:31.395Z,18680.9
2022-11-10T16:37:34.968Z,18680.9
2022-11-10T16:39:32.974Z,18680.9
2022-11-10T16:41:32.155Z,18680.9
2022-11-10T16:43:32.104Z,18680.9
2022-11-10T16:45:38.944Z,18680.9
2022-11-10T16:47:32.197Z,18680.9
2022-11-10T16:49:32.021Z,18680.9
2022-11-10T16:51:31.575Z,18680.9
2022-11-10T16:53:31.500Z,18680.9
2022-11-10T16:55:31.675Z,18680.9
2022-11-10T16:57:34.516Z,18680.9
2022-11-10T16:59:32.292Z,18680.9
2022-11-10T17:01:35.507Z,18680.9
2022-11-10T17:03:36.620Z,18680.9
2022-11-10T17:05:32.207Z,18680.9
2022-11-10T17:07:32.119Z,18680.9
2022-11-10T17:09:32.350Z,18680.9
2022-11-10T17:11:32.083Z,18680.9
2022-11-10T17:13:31.832Z,18680.9
2022-11-10T17:15:31.274Z,18680.9
2022-11-10T17:17:31.435Z,18680.9
2022-11-10T17:19:34.813Z,18680.9
2022-11-10T17:21:33.242Z,18680.9
2022-11-10T17:23:33.196Z,18680.9
2022-11-10T17:25:32.125Z,18680.9
2022-11-10T17:27:37.710Z,18680.9
2022-11-10T17:29:32.186Z,18680.9
2022-11-10T17:31:31.721Z,18680.9
2022-11-10T17:34:10.912Z,18680.9
2022-11-10T17:35:36.206Z,18680.9
2022-11-10T17:37:32.011Z,18680.9
2022-11-10T17:39:31.860Z,18680.9
2022-11-10T17:41:32.320Z,18680.9
2022-11-10T17:43:31.928Z,18680.9
2022-11-10T17:45:32.079Z,18680.9
2022-11-10T17:47:31.400Z,18680.9
2022-11-10T17:49:37.129Z,18680.9
2022-11-10T17:51:31.612Z,18680.9
2022-11-10T17:53:32.504Z,18680.9
2022-11-10T17:55:34.381Z,18680.9
2022-11-10T17:57:31.995Z,18680.9
2022-11-10T17:59:31.512Z,18680.9
2022-11-10T18:01:34.752Z,18680.9
2022-11-10T18:03:39.141Z,18680.9
2022-11-10T18:05:31.636Z,18680.9
2022-11-10T18:07:32.506Z,18680.9
2022-11-10T18:09:32.135Z,18680.9
2022-11-10T18:11:31.755Z,18680.9
2022-11-10T18:13:36.428Z,18680.9
2022-11-10T18:15:32.053Z,18680.9
2022-11-10T18:17:31.784Z,18680.9
2022-11-10T18:19:32.375Z,18680.9
2022-11-10T18:21:32.525Z,18680.9
2022-11-10T18:23:32.326Z,18680.9
2022-11-10T18:25:31.454Z,18680.9
2022-11-10T18:27:31.831Z,18680.9
2022-11-10T18:29:32.184Z,18680.9
2022-11-10T18:31:32.018Z,18680.9
2022-11-10T18:33:32.262Z,18680.9
2022-11-10T18:35:31.575Z,18680.9
2022-11-10T18:37:35.641Z,18680.9
2022-11-10T18:39:31.770Z,18680.9
2022-11-10T18:41:31.757Z,18680.9
2022-11-10T18:43:34.937Z,18680.9
2022-11-10T18:45:31.745Z,18680.9
2022-11-10T18:47:31.827Z,18680.9
2022-11-10T18:49:38.597Z,18680.9
2022-11-10T18:51:36.373Z,18680.9
2022-11-10T18:53:37.880Z,18680.9
2022-11-10T18:55:31.336Z,18680.9
2022-11-10T18:57:31.788Z,18680.9
2022-11-10T18:59:32.077Z,18680.9
2022-11-10T19:01:34.874Z,18680.9
2022-11-10T19:03:32.502Z,18680.9
2022-11-10T19:05:38.425Z,18680.9
2022-11-10T19:07:32.298Z,18680.9
2022-11-10T19:09:31.631Z,18680.9
2022-11-10T19:11:32.209Z,18680.9
2022-11-10T19:13:35.016Z,18680.9
2022-11-10T19:15:32.057Z,18680.9
2022-11-10T19:17:31.997Z,18680.9
2022-11-10T19:19:31.537Z,18680.9
2022-11-10T19:21:31.338Z,18680.9
2022-11-10T19:23:32.783Z,18680.9
2022-11-10T19:26:08.635Z,18680.9
2022-11-10T19:27:36.692Z,18680.9
2022-11-10T19:29:31.307Z,18680.9
2022-11-10T19:31:32.068Z,18680.9
2022-11-10T19:33:33.380Z,18680.9
2022-11-10T19:35:31.879Z,18680.9
2022-11-10T19:37:34.283Z,18680.9
2022-11-10T19:39:31.737Z,18680.9
2022-11-10T19:41:32.322Z,18680.9
2022-11-10T19:43:32.074Z,18680.9
2022-11-10T19:45:32.006Z,18680.9
2022-11-10T19:47:32.090Z,18680.9
2022-11-10T19:49:31.643Z,18680.9
2022-11-10T19:51:34.902Z,18680.9
2022-11-10T19:53:32.064Z,18680.9
2022-11-10T19:55:31.580Z,18680.9
2022-11-10T19:57:38.166Z,18680.9
2022-11-10T19:59:31.791Z,18680.9
2022-11-10T20:01:34.057Z,18680.9
2022-11-10T20:03:39.075Z,18680.9
2022-11-10T20:05:31.393Z,18680.9
2022-11-10T20:07:31.677Z,18680.9
2022-11-10T20:09:36.251Z,18680.9
2022-11-10T20:11:31.627Z,18680.9
2022-11-10T20:13:32.016Z,18680.9
2022-11-10T20:15:31.452Z,18680.9
2022-11-10T20:17:32.080Z,18680.9
2022-11-10T20:19:33.679Z,18680.9
2022-11-10T20:21:31.397Z,18680.9
2022-11-10T20:23:32.520Z,18680.9
2022-11-10T20:25:36.277Z,18680.9
2022-11-10T20:27:31.701Z,18680.9
2022-11-10T20:29:32.266Z,18680.9
2022-11-10T20:31:31.941Z,18680.9
2022-11-10T20:33:32.294Z,18680.9
2022-11-10T20:35:31.322Z,18680.9
2022-11-10T20:37:38.840Z,18680.9
2022-11-10T20:39:31.282Z,18680.9
2022-11-10T20:42:01.362Z,18680.9
2022-11-10T20:43:38.667Z,18680.9
2022-11-10T20:45:31.559Z,18680.9
2022-11-10T20:48:02.281Z,18680.9
2022-11-10T20:49:32.051Z,18680.9
2022-11-10T20:51:38.041Z,18680.9
2022-11-10T20:53:32.384Z,18680.9
2022-11-10T20:56:03.144Z,18680.9
2022-11-10T20:57:37.655Z,18680.9
2022-11-10T20:59:32.035Z,18680.9
2022-11-10T21:01:34.374Z,18680.9
2022-11-10T21:03:32.125Z,18680.9
2022-11-10T21:05:39.008Z,18680.9
2022-11-10T21:07:31.944Z,18680.9
2022-11-10T21:09:31.701Z,18680.9
2022-11-10T21:11:32.595Z,18680.9
2022-11-10T21:13:32.062Z,18680.9
2022-11-10T21:15:32.110Z,18680.9
2022-11-10T21:17:31.874Z,18680.9
2022-11-10T21:19:32.184Z,18680.9
2022-11-10T21:21:31.465Z,18680.9
2022-11-10T21:23:37.616Z,18680.9
2022-11-10T21:25:31.451Z,18680.9
2022-11-10T21:27:32.231Z,18680.9
2022-11-10T21:29:32.319Z,18680.9
2022-11-10T21:31:33.218Z,18680.9
2022-11-10T21:33:32.998Z,18680.9
2022-11-10T21:35:36.822Z,18680.9
2022-11-10T21:37:32.101Z,18680.9
2022-11-10T21:39:32.240Z,18680.9
2022-11-10T21:41:31.324Z,18680.9
2022-11-10T21:43:32.783Z,18680.9
2022-11-10T21:45:31.494Z,18680.9
2022-11-10T21:47:31.596Z,18680.9
2022-11-10T21:49:38.369Z,18680.9
2022-11-10T21:51:31.599Z,18680.9
2022-11-10T21:53:32.228Z,18680.9
2022-11-10T21:55:32.119Z,18680.9
2022-11-10T21:57:31.889Z,18680.9
2022-11-10T21:59:31.218Z,18680.9
2022-11-10T22:01:35.474Z,18680.9
2022-11-10T22:03:32.223Z,18680.9
2022-11-10T22:05:31.330Z,18680.9
2022-11-10T22:07:32.404Z,18680.9
2022-11-10T22:09:31.864Z,18680.9
2022-11-10T22:11:31.398Z,18680.9
2022-11-10T22:13:31.649Z,18680.9
2022-11-10T22:15:31.868Z,18680.9
2022-11-10T22:17:32.318Z,18680.9
2022-11-10T22:19:31.931Z,18680.9
2022-11-10T22:21:32.165Z,18680.9
2022-11-10T22:23:34.749Z,18680.9
2022-11-10T22:25:31.208Z,18680.9
2022-11-10T22:27:31.507Z,18680.9
2022-11-10T22:29:32.174Z,18680.9
2022-11-10T22:31:31.370Z,18680.9
2022-11-10T22:33:32.200Z,18680.9
2022-11-10T22:35:32.264Z,18680.9
2022-11-10T22:37:31.815Z,18680.9
2022-11-10T22:39:37.456Z,18680.9
2022-11-10T22:41:31.511Z,18680.9
2022-11-10T22:43:31.468Z,18680.9
2022-11-10T22:45:32.935Z,18680.9
2022-11-10T22:47:31.743Z,18680.9
2022-11-10T22:49:31.413Z,18680.9
2022-11-10T22:51:31.782Z,18680.9
2022-11-10T22:53:32.099Z,18680.9
2022-11-10T22:55:31.874Z,18680.9
2022-11-10T22:57:31.365Z,18680.9
2022-11-10T22:59:34.104Z,18680.9
2022-11-10T23:01:40.793Z,18680.9
2022-11-10T23:03:33.106Z,18680.9
2022-11-10T23:05:32.158Z,18680.9
2022-11-10T23:07:31.760Z,18680.9
2022-11-10T23:09:31.417Z,18680.9
2022-11-10T23:11:31.828Z,18680.9
2022-11-10T23:13:31.724Z,18680.9
2022-11-10T23:15:31.906Z,18680.9
2022-11-10T23:17:31.774Z,18680.9
2022-11-10T23:19:36.814Z,18680.9
2022-11-10T23:21:31.687Z,18680.9
2022-11-10T23:23:31.707Z,18680.9
2022-11-10T23:25:31.733Z,18680.9
2022-11-10T23:27:31.451Z,18680.9
2022-11-10T23:29:31.419Z,18680.9
2022-11-10T23:31:31.752Z,18680.9
2022-11-10T23:33:33.249Z,18680.9
2022-11-10T23:35:31.737Z,18680.9
2022-11-10T23:37:32.240Z,18680.9
2022-11-10T23:39:31.775Z,18680.9
2022-11-10T23:41:32.391Z,18680.9
2022-11-10T23:43:32.167Z,18680.9
2022-11-10T23:46:00.068Z,18680.9
2022-11-10T23:47:38.005Z,18680.9
2022-11-10T23:49:36.962Z,18680.9
2022-11-10T23:51:31.520Z,18680.9
2022-11-10T23:53:32.445Z,18680.9
2022-11-10T23:55:32.301Z,18680.9
2022-11-10T23:57:31.719Z,18680.9
2022-11-10T23:59:32.146Z,18680.9
